createdAt,value
2023-03-06T00:00:41.326Z,27.65
2023-03-06T00:03:08.182Z,27.69
2023-03-06T00:05:35.202Z,27.64
2023-03-06T00:08:02.160Z,27.76
2023-03-06T00:10:37.080Z,27.53
2023-03-06T00:13:11.213Z,27.69
2023-03-06T00:15:40.022Z,27.82
2023-03-06T00:18:06.923Z,27.98
2023-03-06T00:20:41.030Z,28.25
2023-03-06T00:23:09.456Z,28.76
2023-03-06T00:25:41.827Z,29.26
2023-03-06T00:28:09.877Z,29.88
2023-03-06T00:30:37.462Z,30.35
2023-03-06T00:33:05.243Z,30.83
2023-03-06T00:35:33.692Z,31.37
2023-03-06T00:38:00.373Z,31.67
2023-03-06T00:40:27.309Z,31.94
2023-03-06T00:42:54.627Z,32.26
2023-03-06T00:45:25.328Z,32.65
2023-03-06T00:47:52.075Z,32.89
2023-03-06T00:50:18.876Z,33.16
2023-03-06T00:52:46.429Z,33.31
2023-03-06T00:55:13.059Z,33.37
2023-03-06T00:57:40.882Z,33.49
2023-03-06T01:00:08.082Z,33.69
2023-03-06T01:02:35.457Z,33.87
2023-03-06T01:05:03.266Z,33.81
2023-03-06T01:07:36.329Z,34.04
2023-03-06T01:10:05.617Z,34.25
2023-03-06T01:12:33.877Z,34.22
2023-03-06T01:15:01.198Z,34.20
2023-03-06T01:17:28.973Z,34.31
2023-03-06T01:19:56.852Z,34.23
2023-03-06T01:22:23.597Z,34.56
2023-03-06T01:24:50.489Z,34.71
2023-03-06T01:27:17.130Z,34.87
2023-03-06T01:29:44.097Z,34.78
2023-03-06T01:32:11.103Z,34.79
2023-03-06T01:34:38.950Z,34.87
2023-03-06T01:37:05.625Z,35.07
2023-03-06T01:39:33.501Z,35.10
2023-03-06T01:42:00.514Z,35.17
2023-03-06T01:44:27.693Z,35.16
2023-03-06T01:46:54.431Z,35.25
2023-03-06T01:49:28.052Z,35.17
2023-03-06T01:52:09.221Z,35.11
2023-03-06T01:54:44.286Z,35.17
2023-03-06T01:57:13.153Z,35.10
2023-03-06T01:59:40.164Z,35.18
2023-03-06T02:02:08.073Z,35.17
2023-03-06T02:04:36.125Z,34.97
2023-03-06T02:07:05.669Z,35.01
2023-03-06T02:09:34.631Z,35.01
2023-03-06T02:12:02.637Z,34.92
2023-03-06T02:14:29.913Z,34.79
2023-03-06T02:17:03.613Z,34.82
2023-03-06T02:19:33.893Z,35.09
2023-03-06T02:22:00.649Z,35.19
2023-03-06T02:25:02.729Z,35.19
2023-03-06T02:27:30.176Z,35.21
2023-03-06T02:29:57.342Z,34.98
2023-03-06T02:32:24.182Z,34.78
2023-03-06T02:34:55.924Z,35.30
2023-03-06T02:37:23.744Z,35.24
2023-03-06T02:40:09.400Z,35.03
2023-03-06T02:42:36.943Z,35.06
2023-03-06T02:45:04.303Z,35.29
2023-03-06T02:47:31.339Z,34.99
2023-03-06T02:49:59.707Z,35.11
2023-03-06T02:52:26.451Z,35.66
2023-03-06T02:54:53.303Z,35.85
2023-03-06T02:57:20.240Z,35.87
2023-03-06T02:59:46.937Z,35.86
2023-03-06T03:02:14.236Z,35.73
2023-03-06T03:04:41.608Z,35.74
2023-03-06T03:07:08.900Z,35.55
2023-03-06T03:09:36.676Z,35.56
2023-03-06T03:12:08.782Z,35.75
2023-03-06T03:14:37.351Z,35.82
2023-03-06T03:17:04.189Z,35.74
2023-03-06T03:19:30.902Z,35.64
2023-03-06T03:21:57.570Z,35.67
2023-03-06T03:24:25.466Z,35.60
2023-03-06T03:26:52.239Z,35.69
2023-03-06T03:29:19.862Z,35.76
2023-03-06T03:31:47.757Z,35.75
2023-03-06T03:34:14.600Z,35.74
2023-03-06T03:36:41.893Z,35.62
2023-03-06T03:39:09.646Z,35.82
2023-03-06T03:41:36.857Z,35.71
2023-03-06T03:44:05.592Z,35.55
2023-03-06T03:46:36.410Z,35.42
2023-03-06T03:49:04.117Z,35.45
2023-03-06T03:51:31.442Z,35.41
2023-03-06T03:53:58.391Z,35.56
2023-03-06T03:56:27.337Z,35.33
2023-03-06T03:59:04.381Z,35.23
2023-03-06T04:01:39.150Z,35.19
2023-03-06T04:04:07.674Z,35.28
2023-03-06T04:06:34.803Z,35.15
2023-03-06T04:09:04.022Z,35.19
2023-03-06T04:11:30.956Z,35.04
2023-03-06T04:13:57.798Z,35.36
2023-03-06T04:16:24.737Z,35.30
2023-03-06T04:18:51.719Z,35.37
2023-03-06T04:21:24.086Z,35.41
2023-03-06T04:23:50.988Z,35.41
2023-03-06T04:26:17.854Z,35.45
2023-03-06T04:28:46.765Z,35.41
2023-03-06T04:31:17.386Z,35.36
2023-03-06T04:33:44.332Z,35.20
2023-03-06T04:36:16.628Z,35.25
2023-03-06T04:38:43.648Z,35.16
2023-03-06T04:41:11.410Z,35.32
2023-03-06T04:43:39.606Z,35.39
2023-03-06T04:46:06.727Z,35.39
2023-03-06T04:48:36.745Z,35.46
2023-03-06T04:51:03.783Z,35.51
2023-03-06T04:53:32.428Z,35.37
2023-03-06T04:55:59.451Z,35.33
2023-03-06T04:58:27.830Z,35.29
2023-03-06T05:00:54.719Z,35.30
2023-03-06T05:03:21.656Z,35.22
2023-03-06T05:05:49.053Z,35.25
2023-03-06T05:08:16.087Z,35.34
2023-03-06T05:10:44.084Z,35.56
2023-03-06T05:13:11.700Z,35.47
2023-03-06T05:15:41.886Z,35.33
2023-03-06T05:18:09.785Z,35.25
2023-03-06T05:20:36.844Z,35.31
2023-03-06T05:23:08.433Z,35.42
2023-03-06T05:25:41.332Z,35.20
2023-03-06T05:28:08.324Z,35.20
2023-03-06T05:30:35.471Z,35.06
2023-03-06T05:33:05.144Z,35.03
2023-03-06T05:35:32.709Z,35.23
2023-03-06T05:38:02.126Z,35.12
2023-03-06T05:40:30.683Z,35.08
2023-03-06T05:42:59.766Z,34.82
2023-03-06T05:45:28.292Z,34.79
2023-03-06T05:47:57.735Z,34.75
2023-03-06T05:50:28.789Z,34.97
2023-03-06T05:52:59.765Z,35.09
2023-03-06T05:55:28.871Z,35.08
2023-03-06T05:57:58.834Z,35.10
2023-03-06T06:00:27.948Z,34.97
2023-03-06T06:02:56.584Z,34.91
2023-03-06T06:05:26.765Z,34.88
2023-03-06T06:07:56.197Z,34.85
2023-03-06T06:10:25.179Z,34.73
2023-03-06T06:12:53.597Z,34.26
2023-03-06T06:15:22.809Z,34.23
2023-03-06T06:17:52.956Z,33.99
2023-03-06T06:20:21.819Z,33.80
2023-03-06T06:22:51.848Z,33.75
2023-03-06T06:25:21.843Z,33.77
2023-03-06T06:27:50.991Z,33.76
2023-03-06T06:30:20.110Z,33.65
2023-03-06T06:32:49.893Z,33.48
2023-03-06T06:35:19.053Z,33.05
2023-03-06T06:46:53.350Z,31.15
2023-03-06T06:49:05.398Z,30.73
2023-03-06T06:51:33.449Z,30.41
2023-03-06T06:54:00.505Z,30.37
2023-03-06T06:56:27.560Z,30.44
2023-03-06T06:59:15.389Z,30.54
2023-03-06T07:01:44.754Z,30.61
2023-03-06T07:04:13.055Z,30.46
2023-03-06T07:06:41.021Z,30.29
2023-03-06T07:09:08.196Z,30.27
2023-03-06T07:11:35.940Z,30.28
2023-03-06T07:14:02.737Z,30.23
2023-03-06T07:16:29.854Z,29.99
2023-03-06T07:18:56.915Z,29.82
2023-03-06T07:21:24.127Z,29.99
2023-03-06T07:23:51.113Z,29.95
2023-03-06T07:26:18.770Z,30.03
2023-03-06T07:28:52.601Z,29.80
2023-03-06T07:31:21.819Z,29.72
2023-03-06T07:33:49.746Z,29.78
2023-03-06T07:36:16.691Z,29.99
2023-03-06T07:38:43.643Z,29.97
2023-03-06T07:41:13.039Z,29.92
2023-03-06T07:43:40.915Z,30.04
2023-03-06T07:46:08.195Z,30.32
2023-03-06T07:48:36.252Z,30.70
2023-03-06T07:51:10.043Z,30.92
2023-03-06T07:53:36.840Z,30.48
2023-03-06T07:56:08.546Z,30.33
2023-03-06T07:58:37.482Z,30.38
2023-03-06T08:02:13.916Z,30.20
2023-03-06T08:04:42.501Z,30.34
2023-03-06T08:07:11.125Z,30.64
2023-03-06T08:09:39.740Z,30.67
2023-03-06T08:12:08.766Z,30.51
2023-03-06T08:14:36.888Z,30.27
2023-03-06T08:17:09.319Z,30.19
2023-03-06T08:19:37.511Z,30.41
2023-03-06T08:22:06.288Z,30.55
2023-03-06T08:24:36.558Z,30.56
2023-03-06T08:27:04.816Z,30.55
2023-03-06T08:29:40.337Z,30.49
2023-03-06T08:32:11.838Z,30.28
2023-03-06T08:34:41.390Z,30.12
2023-03-06T08:37:10.674Z,30.50
2023-03-06T08:39:39.076Z,29.81
2023-03-06T08:42:07.655Z,29.11
2023-03-06T08:44:38.185Z,28.27
2023-03-06T08:47:06.462Z,28.01
2023-03-06T08:49:36.131Z,27.59
2023-03-06T08:52:04.688Z,27.21
2023-03-06T08:54:35.450Z,26.94
2023-03-06T08:57:03.976Z,26.90
2023-03-06T08:59:32.703Z,26.84
2023-03-06T09:02:01.736Z,26.91
2023-03-06T09:04:38.028Z,27.06
2023-03-06T09:07:07.950Z,26.78
2023-03-06T09:09:36.154Z,26.33
2023-03-06T09:12:05.010Z,26.42
2023-03-06T09:14:33.317Z,26.63
2023-03-06T09:17:01.381Z,25.92
2023-03-06T09:19:29.895Z,25.78
2023-03-06T09:22:00.625Z,25.81
2023-03-06T09:24:33.849Z,25.45
2023-03-06T09:27:02.272Z,25.60
2023-03-06T09:29:30.671Z,25.55
2023-03-06T09:31:59.428Z,25.11
2023-03-06T09:34:28.218Z,24.73
2023-03-06T09:37:03.211Z,24.50
2023-03-06T09:39:31.433Z,24.28
2023-03-06T09:41:59.710Z,24.51
2023-03-06T09:44:29.653Z,24.45
2023-03-06T09:47:07.328Z,24.45
2023-03-06T09:49:58.266Z,24.09
2023-03-06T09:52:30.022Z,23.99
2023-03-06T09:54:59.597Z,24.31
2023-03-06T09:57:38.228Z,24.09
2023-03-06T10:00:15.404Z,23.87
2023-03-06T10:02:50.819Z,23.91
2023-03-06T10:05:25.111Z,24.14
2023-03-06T10:08:26.116Z,24.19
2023-03-06T10:28:46.862Z,23.06
2023-03-06T10:31:28.076Z,22.52
2023-03-06T10:33:58.773Z,22.39
2023-03-06T10:36:27.965Z,22.45
2023-03-06T10:38:57.581Z,22.34
2023-03-06T10:41:28.555Z,22.24
2023-03-06T10:43:59.866Z,21.97
2023-03-06T10:46:36.232Z,22.13
2023-03-06T10:49:25.428Z,21.84
2023-03-06T10:52:12.571Z,21.18
2023-03-06T10:54:45.218Z,20.73
2023-03-06T10:57:32.454Z,20.64
2023-03-06T11:00:23.234Z,20.49
2023-03-06T11:03:16.655Z,20.28
2023-03-06T11:07:59.321Z,21.78
2023-03-06T11:10:28.936Z,20.85
2023-03-06T11:13:06.530Z,20.42
2023-03-06T11:15:41.628Z,20.27
2023-03-06T11:18:10.590Z,20.35
2023-03-06T11:20:51.479Z,20.35
2023-03-06T11:23:43.272Z,20.35
2023-03-06T11:26:26.400Z,20.40
2023-03-06T11:29:19.277Z,20.38
2023-03-06T11:31:56.542Z,20.12
2023-03-06T11:34:42.230Z,20.29
2023-03-06T11:37:25.347Z,20.17
2023-03-06T11:40:09.084Z,20.08
2023-03-06T11:42:41.068Z,20.13
2023-03-06T11:45:34.852Z,19.86
2023-03-06T11:48:17.642Z,19.54
2023-03-06T11:50:53.414Z,19.63
2023-03-06T11:53:35.969Z,19.69
2023-03-06T11:56:10.208Z,19.57
2023-03-06T11:59:07.132Z,19.31
2023-03-06T12:01:41.931Z,19.56
2023-03-06T12:04:44.393Z,19.46
2023-03-06T12:07:16.154Z,19.57
2023-03-06T12:10:20.885Z,19.35
2023-03-06T12:13:13.738Z,19.59
2023-03-06T12:16:11.289Z,19.53
2023-03-06T12:18:43.120Z,19.78
2023-03-06T12:21:20.562Z,19.25
2023-03-06T12:24:00.749Z,19.24
2023-03-06T12:26:54.388Z,19.24
2023-03-06T12:30:12.532Z,19.14
2023-03-06T12:32:41.155Z,19.07
2023-03-06T12:35:17.452Z,18.63
2023-03-06T12:38:04.580Z,18.88
2023-03-06T12:40:56.544Z,18.76
2023-03-06T12:43:46.937Z,18.72
2023-03-06T12:46:28.228Z,18.90
2023-03-06T12:49:26.323Z,18.97
2023-03-06T12:51:58.912Z,19.23
2023-03-06T12:54:31.559Z,19.23
2023-03-06T12:56:59.863Z,19.08
2023-03-06T12:59:34.564Z,18.98
2023-03-06T13:02:21.336Z,19.01
2023-03-06T13:04:55.703Z,18.85
2023-03-06T13:07:28.205Z,18.86
2023-03-06T13:10:24.819Z,19.09
2023-03-06T13:13:02.003Z,19.07
2023-03-06T13:15:36.763Z,19.09
2023-03-06T13:18:24.333Z,19.09
2023-03-06T13:20:57.686Z,19.02
2023-03-06T13:23:32.187Z,19.13
2023-03-06T13:26:02.300Z,19.14
2023-03-06T13:28:50.337Z,19.14
2023-03-06T13:31:36.548Z,19.11
2023-03-06T13:34:25.812Z,19.14
2023-03-06T13:37:17.540Z,19.31
2023-03-06T13:39:55.248Z,19.07
2023-03-06T13:42:31.931Z,19.06
2023-03-06T13:45:35.028Z,19.00
2023-03-06T13:48:24.948Z,19.15
2023-03-06T13:50:52.246Z,19.06
2023-03-06T13:53:45.854Z,19.08
2023-03-06T13:56:53.381Z,18.92
2023-03-06T13:59:25.184Z,19.09
2023-03-06T14:02:19.378Z,19.17
2023-03-06T14:04:54.469Z,19.21
2023-03-06T14:07:37.675Z,19.22
2023-03-06T14:10:34.118Z,19.30
2023-03-06T14:13:07.776Z,19.20
2023-03-06T14:15:47.665Z,19.20
2023-03-06T14:18:23.975Z,19.24
2023-03-06T14:21:02.821Z,19.24
2023-03-06T14:23:35.933Z,19.31
2023-03-06T14:26:07.253Z,19.53
2023-03-06T14:28:36.159Z,19.52
2023-03-06T14:31:38.459Z,19.44
2023-03-06T14:34:30.712Z,19.34
2023-03-06T14:37:05.674Z,19.48
2023-03-06T14:39:43.768Z,19.55
2023-03-06T14:42:22.066Z,19.74
2023-03-06T14:45:17.801Z,20.00
2023-03-06T14:47:53.291Z,20.14
2023-03-06T14:50:23.319Z,20.45
2023-03-06T14:52:55.821Z,20.78
2023-03-06T14:55:26.050Z,21.28
2023-03-06T14:58:01.152Z,21.56
2023-03-06T15:00:35.885Z,21.85
2023-03-06T15:03:06.100Z,22.05
2023-03-06T15:05:34.998Z,22.52
2023-03-06T15:08:04.574Z,22.79
2023-03-06T15:10:35.959Z,22.95
2023-03-06T15:13:25.229Z,23.09
2023-03-06T15:16:05.931Z,23.01
2023-03-06T15:18:44.005Z,23.11
2023-03-06T15:21:20.756Z,23.00
2023-03-06T15:23:50.556Z,23.06
2023-03-06T15:26:29.211Z,22.92
2023-03-06T15:29:08.940Z,22.86
2023-03-06T15:31:42.465Z,22.96
2023-03-06T15:34:15.648Z,22.93
2023-03-06T15:36:49.250Z,23.09
2023-03-06T15:39:28.085Z,22.93
2023-03-06T15:42:18.322Z,22.74
2023-03-06T15:44:54.736Z,22.63
2023-03-06T15:47:23.152Z,22.61
2023-03-06T15:49:54.673Z,22.55
2023-03-06T15:52:23.189Z,22.74
2023-03-06T16:01:18.934Z,22.77
2023-03-06T16:04:03.333Z,22.75
2023-03-06T16:06:31.662Z,22.55
2023-03-06T16:08:59.974Z,22.65
2023-03-06T16:11:41.999Z,22.79
2023-03-06T16:14:21.435Z,22.96
2023-03-06T16:16:51.395Z,23.10
2023-03-06T16:19:26.238Z,23.25
2023-03-06T16:21:56.284Z,23.54
2023-03-06T16:24:26.337Z,23.83
2023-03-06T16:26:55.284Z,24.16
2023-03-06T16:29:25.579Z,24.21
2023-03-06T16:31:55.439Z,24.32
2023-03-06T16:34:24.105Z,24.45
2023-03-06T16:36:53.797Z,24.36
2023-03-06T16:39:22.930Z,24.58
2023-03-06T16:41:55.287Z,24.56
2023-03-06T16:44:23.983Z,24.60
2023-03-06T16:46:52.146Z,24.77
2023-03-06T16:49:24.146Z,24.88
2023-03-06T16:51:52.878Z,24.97
2023-03-06T16:54:23.389Z,25.06
2023-03-06T16:56:51.815Z,25.12
2023-03-06T16:59:25.036Z,25.31
2023-03-06T17:01:54.489Z,25.42
2023-03-06T17:04:22.825Z,25.60
2023-03-06T17:06:53.554Z,25.77
2023-03-06T17:09:21.914Z,25.76
2023-03-06T17:11:50.369Z,26.01
2023-03-06T17:14:19.701Z,26.02
2023-03-06T17:16:48.358Z,26.15
2023-03-06T17:19:16.762Z,26.20
2023-03-06T17:21:46.763Z,26.33
2023-03-06T17:24:15.624Z,26.42
2023-03-06T17:26:44.551Z,26.55
2023-03-06T17:29:12.847Z,26.64
2023-03-06T17:31:41.025Z,26.82
2023-03-06T17:34:09.450Z,27.19
2023-03-06T17:36:38.162Z,27.26
2023-03-06T17:39:06.360Z,27.40
2023-03-06T17:41:35.040Z,27.65
2023-03-06T17:44:03.283Z,27.63
2023-03-06T17:46:32.500Z,27.83
2023-03-06T17:49:01.032Z,27.92
2023-03-06T17:51:29.573Z,28.05
2023-03-06T17:53:58.461Z,27.88
2023-03-06T17:56:31.456Z,28.03
2023-03-06T17:59:00.679Z,28.07
2023-03-06T18:01:30.332Z,28.12
2023-03-06T18:04:03.976Z,28.22
2023-03-06T18:06:33.643Z,28.32
2023-03-06T18:09:05.431Z,28.19
2023-03-06T18:11:33.978Z,28.46
2023-03-06T18:14:05.280Z,28.48
2023-03-06T18:16:53.521Z,28.58
2023-03-06T18:19:22.134Z,28.70
2023-03-06T18:21:50.273Z,28.75
2023-03-06T18:24:18.658Z,28.84
2023-03-06T18:26:47.856Z,28.99
2023-03-06T18:29:16.352Z,29.00
2023-03-06T18:31:47.101Z,29.18
2023-03-06T18:34:15.565Z,29.16
2023-03-06T18:36:47.154Z,29.38
2023-03-06T18:39:16.107Z,29.52
2023-03-06T18:41:44.310Z,29.54
2023-03-06T18:44:14.331Z,29.66
2023-03-06T18:46:42.778Z,29.79
2023-03-06T18:49:12.296Z,30.00
2023-03-06T18:51:40.891Z,30.00
2023-03-06T18:54:10.281Z,30.17
2023-03-06T18:56:39.931Z,30.28
2023-03-06T18:59:08.365Z,30.21
2023-03-06T19:01:37.859Z,30.37
2023-03-06T19:04:06.388Z,30.57
2023-03-06T19:06:38.095Z,30.54
2023-03-06T19:09:06.498Z,30.75
2023-03-06T19:11:39.101Z,30.75
2023-03-06T19:14:07.910Z,30.87
2023-03-06T19:16:36.305Z,30.87
2023-03-06T19:19:07.230Z,30.95
2023-03-06T19:21:35.839Z,31.07
2023-03-06T19:24:04.975Z,31.15
2023-03-06T19:26:33.370Z,31.22
2023-03-06T19:29:01.566Z,31.25
2023-03-06T19:31:30.361Z,31.28
2023-03-06T19:33:59.222Z,31.45
2023-03-06T19:36:33.462Z,31.57
2023-03-06T19:39:03.871Z,31.56
2023-03-06T19:41:32.156Z,31.64
2023-03-06T19:44:02.523Z,31.80
2023-03-06T19:46:32.100Z,31.85
2023-03-06T19:49:02.645Z,31.72
2023-03-06T19:51:31.172Z,31.86
2023-03-06T19:54:02.982Z,31.82
2023-03-06T19:56:33.898Z,31.90
2023-03-06T19:59:02.125Z,31.99
2023-03-06T20:01:30.996Z,31.96
2023-03-06T20:04:00.131Z,32.12
2023-03-06T20:06:30.109Z,32.30
2023-03-06T20:09:01.576Z,32.22
2023-03-06T20:11:32.686Z,32.24
2023-03-06T20:14:02.797Z,32.30
2023-03-06T20:16:31.460Z,32.34
2023-03-06T20:19:10.816Z,32.32
2023-03-06T20:21:41.392Z,32.37
2023-03-06T20:24:16.797Z,32.41
2023-03-06T20:26:46.197Z,32.51
2023-03-06T20:29:14.472Z,32.47
2023-03-06T20:31:42.650Z,32.57
2023-03-06T20:34:14.607Z,32.66
2023-03-06T20:36:43.125Z,32.70
2023-03-06T20:39:13.526Z,32.86
2023-03-06T20:41:43.332Z,32.74
2023-03-06T20:44:14.385Z,33.10
2023-03-06T20:46:43.344Z,32.77
2023-03-06T20:49:16.278Z,32.97
2023-03-06T20:51:45.399Z,32.94
2023-03-06T20:54:15.022Z,32.95
2023-03-06T20:56:48.072Z,32.89
2023-03-06T20:59:16.860Z,33.14
2023-03-06T21:01:45.788Z,33.08
2023-03-06T21:04:14.385Z,33.03
2023-03-06T21:06:46.590Z,32.99
2023-03-06T21:09:16.311Z,33.02
2023-03-06T21:11:45.238Z,33.03
2023-03-06T21:14:15.132Z,33.39
2023-03-06T21:16:44.220Z,33.14
2023-03-06T21:19:22.045Z,33.38
2023-03-06T21:21:50.858Z,33.45
2023-03-06T21:24:21.219Z,33.60
2023-03-06T21:26:52.280Z,33.39
2023-03-06T21:29:21.488Z,33.62
2023-03-06T21:31:55.295Z,33.63
2023-03-06T21:34:24.075Z,33.85
2023-03-06T21:36:52.351Z,33.96
2023-03-06T21:39:21.269Z,33.89
2023-03-06T21:41:49.570Z,34.05
2023-03-06T21:44:18.120Z,34.14
2023-03-06T21:46:46.393Z,34.16
2023-03-06T21:49:15.412Z,34.11
2023-03-06T21:51:43.828Z,34.20
2023-03-06T21:54:13.180Z,34.21
2023-03-06T21:56:42.981Z,34.11
2023-03-06T21:59:11.148Z,34.27
2023-03-06T22:01:39.547Z,34.40
2023-03-06T22:04:08.523Z,34.55
2023-03-06T22:06:38.035Z,34.63
2023-03-06T22:09:06.726Z,34.63
2023-03-06T22:11:37.386Z,34.92
2023-03-06T22:14:06.562Z,34.86
2023-03-06T22:16:38.828Z,34.91
2023-03-06T22:19:08.139Z,34.89
2023-03-06T22:21:36.554Z,34.84
2023-03-06T22:24:06.858Z,34.78
2023-03-06T22:26:35.109Z,34.81
2023-03-06T22:29:07.702Z,34.91
2023-03-06T22:31:39.274Z,34.91
2023-03-06T22:34:09.281Z,34.89
2023-03-06T22:36:57.419Z,34.80
2023-03-06T22:39:26.922Z,34.68
2023-03-06T22:41:56.018Z,34.88
2023-03-06T22:44:24.175Z,34.89
2023-03-06T22:46:53.686Z,34.92
2023-03-06T22:49:21.962Z,35.08
2023-03-06T22:51:50.136Z,35.05
2023-03-06T22:54:20.957Z,35.16
2023-03-06T22:56:50.209Z,35.02
2023-03-06T22:59:19.086Z,35.28
2023-03-06T23:01:48.680Z,35.26
2023-03-06T23:04:17.210Z,35.19
2023-03-06T23:06:52.397Z,35.18
2023-03-06T23:09:21.913Z,35.08
2023-03-06T23:12:11.716Z,35.13
2023-03-06T23:14:59.758Z,35.16
2023-03-06T23:17:46.890Z,35.12
2023-03-06T23:20:34.688Z,35.16
2023-03-06T23:26:01.976Z,37.32
2023-03-06T23:28:30.859Z,35.36
2023-03-06T23:30:59.762Z,35.09
2023-03-06T23:33:28.745Z,35.10
2023-03-06T23:36:04.046Z,34.97
2023-03-06T23:38:32.469Z,34.81
2023-03-06T23:41:04.945Z,34.75
2023-03-06T23:43:33.939Z,34.78
2023-03-06T23:46:03.071Z,34.80
2023-03-06T23:48:34.596Z,34.79
2023-03-06T23:51:11.429Z,34.57
2023-03-06T23:53:41.905Z,34.61
2023-03-06T23:56:10.128Z,34.67
2023-03-06T23:58:39.489Z,34.48
